Exeter, United Kingdom
Current Conditions -  °F | °C
As of 4:20 PM on Wednesday 28 Jan 2015 (Local Time) from EGTE Reporting Station
Rain Showers Rain Showers  
Wind Chill: 32°   Ceiling: Unl
Heat Index: 39°   Visibility: 6mi
Dew Point: 34°   Wind: 13mph
Humidity: 81%   Direction: 300°WNW
Pressure: 29.74"   Gusts: NA
Location:  50.72°N, 3.53°W
Report Text: EGTE 281620Z 30011KT 9999 VCSH FEW010 04/01 Q1007 RESHRA
Loading
Personal Weather Stations






























Interactive Weather Map New forecast layout! Learn more

10-Day Weather Forecast

Advertisements
Track Severe Weather on mobile